Time;durP1;ratioP1;P1;durP2;ratioP2;P2;SDS_P1;SDS_P2;PMS_P1;PMS_P2;Temp;Humidity;BMP_temperature;BMP_pressure;BME280_temperature;BME280_humidity;BME280_pressure;Samples;Min_cycle;Max_cycle;Signal;HPM_P1;HPM_P2
2021/12/26 00:00:53;;;;;;;8.05;1.40;;;-8.30;99.90;;;;;;5070042;28;20040;-44
2021/12/26 00:03:19;;;;;;;5.45;1.20;;;-8.30;99.90;;;;;;5070825;28;20055;-43
2021/12/26 00:05:45;;;;;;;6.90;1.17;;;-8.30;99.90;;;;;;5078572;28;20125;-44
2021/12/26 00:08:11;;;;;;;3.33;1.08;;;-8.30;99.90;;;;;;5059415;28;20505;-44
2021/12/26 00:10:37;;;;;;;7.40;1.63;;;-8.20;99.90;;;;;;5067923;28;20072;-43
2021/12/26 00:13:03;;;;;;;6.25;1.45;;;-8.20;99.90;;;;;;5068455;28;20036;-44
2021/12/26 00:15:30;;;;;;;3.58;1.42;;;-8.10;99.90;;;;;;5061144;28;20506;-43
2021/12/26 00:17:55;;;;;;;4.32;1.35;;;-8.00;99.90;;;;;;5064234;28;20041;-44
2021/12/26 00:20:22;;;;;;;5.97;1.65;;;-7.90;99.90;;;;;;5063936;28;20066;-42
2021/12/26 00:22:49;;;;;;;4.65;1.73;;;-7.90;99.90;;;;;;5085546;28;20045;-44
2021/12/26 00:25:15;;;;;;;3.75;1.30;;;-7.90;99.90;;;;;;5085471;28;20107;-42
2021/12/26 00:27:41;;;;;;;6.32;1.45;;;-7.90;99.90;;;;;;5088660;28;20075;-43
2021/12/26 00:30:11;;;;;;;7.40;1.70;;;-7.90;99.90;;;;;;5087857;28;20478;-43
2021/12/26 00:32:37;;;;;;;7.95;1.77;;;-8.00;99.90;;;;;;5084249;28;20056;-43
2021/12/26 00:35:04;;;;;;;7.90;1.63;;;-8.00;99.90;;;;;;5088498;28;20073;-43
2021/12/26 00:37:30;;;;;;;4.40;1.90;;;-8.00;99.90;;;;;;5062742;28;20055;-44
2021/12/26 00:39:55;;;;;;;4.85;1.52;;;-8.10;99.90;;;;;;5076123;28;20397;-43
2021/12/26 00:42:21;;;;;;;5.80;1.17;;;-8.10;99.90;;;;;;5085439;28;20040;-43
2021/12/26 00:44:47;;;;;;;4.63;1.23;;;-8.20;99.90;;;;;;5087062;28;20494;-45
2021/12/26 00:47:13;;;;;;;3.90;1.88;;;-8.20;99.90;;;;;;5088726;28;20445;-44
2021/12/26 00:49:39;;;;;;;3.50;1.08;;;-8.40;99.90;;;;;;5087956;28;20423;-43
2021/12/26 00:52:06;;;;;;;11.07;1.45;;;-8.20;99.90;;;;;;5087288;28;20042;-44
2021/12/26 00:54:32;;;;;;;4.95;1.20;;;-8.20;99.90;;;;;;5088545;28;20040;-44
2021/12/26 00:56:58;;;;;;;5.18;1.23;;;-6.20;99.90;;;;;;5090476;28;20046;-43
2021/12/26 00:59:25;;;;;;;4.13;1.30;;;-8.20;99.90;;;;;;5080588;28;20040;-43
2021/12/26 01:01:53;;;;;;;5.10;1.13;;;-8.30;99.90;;;;;;5070232;28;20040;-44
2021/12/26 01:04:19;;;;;;;4.63;2.10;;;-8.20;99.90;;;;;;5086954;28;20093;-44
2021/12/26 01:06:45;;;;;;;4.45;1.25;;;-8.20;99.90;;;;;;5090251;28;20040;-44
2021/12/26 01:09:15;;;;;;;3.08;1.20;;;-8.30;99.90;;;;;;5085831;28;20381;-42
2021/12/26 01:11:47;;;;;;;5.95;1.67;;;-8.30;99.90;;;;;;5078702;28;20033;-43
2021/12/26 01:14:16;;;;;;;3.63;1.35;;;-8.30;99.90;;;;;;5070051;28;20116;-43
2021/12/26 01:16:43;;;;;;;6.18;0.77;;;-8.40;99.90;;;;;;5069886;28;20123;-45
2021/12/26 01:19:14;;;;;;;3.17;0.73;;;-8.30;99.90;;;;;;5077433;28;20404;-43
2021/12/26 01:21:41;;;;;;;4.63;1.70;;;-8.30;99.90;;;;;;5086420;28;20052;-43
2021/12/26 01:24:11;;;;;;;6.13;1.50;;;-8.30;99.90;;;;;;5076717;28;20070;-43
2021/12/26 01:26:37;;;;;;;5.20;0.73;;;-8.20;99.90;;;;;;5089610;28;20496;-43
2021/12/26 01:29:04;;;;;;;4.38;0.98;;;-8.20;99.90;;;;;;5083911;28;20527;-43
2021/12/26 01:31:30;;;;;;;5.05;0.82;;;-8.10;99.90;;;;;;5071339;28;20040;-44
2021/12/26 01:34:03;;;;;;;2.33;0.82;;;-8.10;99.90;;;;;;5089587;28;20040;-44
2021/12/26 01:36:31;;;;;;;4.43;0.90;;;-8.10;99.90;;;;;;5073543;28;20533;-43
2021/12/26 01:38:58;;;;;;;3.90;0.98;;;-8.10;99.90;;;;;;5078169;28;20417;-44
2021/12/26 01:41:25;;;;;;;4.45;0.90;;;-8.00;99.90;;;;;;5068049;28;20125;-43
2021/12/26 01:43:56;;;;;;;4.50;1.10;;;-8.00;99.90;;;;;;5088223;28;20082;-45
2021/12/26 01:46:26;;;;;;;4.75;1.15;;;-8.00;99.90;;;;;;5070867;28;20067;-42
2021/12/26 01:49:14;;;;;;;3.60;0.70;;;-7.90;99.90;;;;;;5086908;28;20036;-43
2021/12/26 01:51:42;;;;;;;3.65;1.10;;;-7.80;99.90;;;;;;5097960;28;20051;-43
2021/12/26 01:54:10;;;;;;;3.00;0.82;;;-7.80;99.90;;;;;;5099238;28;20040;-42
2021/12/26 01:56:41;;;;;;;5.35;0.82;;;-7.80;99.90;;;;;;5071355;28;20119;-43
2021/12/26 01:59:09;;;;;;;1.90;0.70;;;-7.70;99.90;;;;;;5074473;28;20053;-43
2021/12/26 02:01:35;;;;;;;4.95;0.75;;;-7.70;99.90;;;;;;5088013;28;20428;-43
2021/12/26 02:04:02;;;;;;;3.75;0.77;;;-7.70;99.90;;;;;;5089298;28;20044;-43
2021/12/26 02:06:28;;;;;;;5.82;1.05;;;-7.70;99.90;;;;;;5076572;28;20050;-42
2021/12/26 02:08:54;;;;;;;3.25;0.63;;;-7.60;99.90;;;;;;5077168;28;20556;-43
2021/12/26 02:11:19;;;;;;;2.85;0.73;;;-7.60;99.90;;;;;;5089337;28;20051;-43
2021/12/26 02:13:46;;;;;;;2.75;0.50;;;-7.80;99.90;;;;;;5076973;28;20044;-44
2021/12/26 02:16:12;;;;;;;4.63;1.35;;;-7.70;99.90;;;;;;5076449;28;20102;-43
2021/12/26 02:18:39;;;;;;;4.82;0.63;;;-7.70;99.90;;;;;;5086281;28;20540;-42
2021/12/26 02:21:18;;;;;;;4.30;1.35;;;-7.80;99.90;;;;;;5077317;28;20143;-44
2021/12/26 02:29:25;;;;;;;5.82;0.68;;;-7.80;99.90;;;;;;5078335;28;20507;-43
2021/12/26 02:31:51;;;;;;;8.68;1.92;;;-7.80;99.90;;;;;;5066222;28;20060;-43
2021/12/26 02:34:17;;;;;;;3.33;0.70;;;-7.80;99.90;;;;;;5070908;28;20044;-42
2021/12/26 02:36:43;;;;;;;2.70;0.77;;;-7.80;99.90;;;;;;5086012;28;20048;-43
2021/12/26 02:39:09;;;;;;;4.00;1.52;;;-7.80;99.90;;;;;;5079217;28;20032;-43
2021/12/26 02:41:34;;;;;;;2.95;0.60;;;-7.70;99.90;;;;;;5090801;28;20072;-43
2021/12/26 02:44:00;;;;;;;2.90;0.95;;;-7.70;99.90;;;;;;5072252;28;20126;-44
2021/12/26 02:46:27;;;;;;;2.33;0.55;;;-7.70;99.90;;;;;;5090784;28;20438;-43
2021/12/26 02:48:53;;;;;;;5.13;0.85;;;-7.70;99.90;;;;;;5092646;28;20054;-44
2021/12/26 02:51:19;;;;;;;3.95;0.93;;;-7.80;99.90;;;;;;5092506;28;20181;-44
2021/12/26 02:53:48;;;;;;;3.85;0.77;;;-7.40;99.90;;;;;;5089031;28;20040;-43
2021/12/26 02:56:15;;;;;;;2.95;0.90;;;-7.90;99.90;;;;;;5072414;28;20040;-44
2021/12/26 02:58:41;;;;;;;3.60;0.47;;;-7.90;99.90;;;;;;5065788;28;20048;-42
2021/12/26 03:01:18;;;;;;;1.73;0.50;;;-7.90;99.90;;;;;;5085955;28;20054;-44
2021/12/26 03:03:44;;;;;;;2.38;0.80;;;-7.90;99.90;;;;;;5076104;28;20174;-43
2021/12/26 03:06:40;;;;;;;2.55;0.82;;;-7.90;99.90;;;;;;5092523;28;20127;-44
2021/12/26 03:08:57;;;;;;;2.28;0.50;;;-7.80;99.90;;;;;;5083663;28;20060;-43
2021/12/26 03:11:23;;;;;;;3.45;0.80;;;-7.80;99.90;;;;;;5056895;28;20075;-42
2021/12/26 03:13:49;;;;;;;6.78;1.67;;;-7.80;99.90;;;;;;5072380;28;20052;-44
2021/12/26 03:16:16;;;;;;;3.92;0.90;;;-7.70;99.90;;;;;;5080079;28;20389;-44
2021/12/26 03:18:41;;;;;;;2.22;0.73;;;-7.80;99.90;;;;;;5088773;28;20044;-42
2021/12/26 03:21:07;;;;;;;3.67;1.33;;;-7.80;99.90;;;;;;5086712;28;20060;-44
2021/12/26 03:23:33;;;;;;;3.78;1.08;;;-7.90;99.90;;;;;;5080473;28;20135;-44
2021/12/26 03:26:03;;;;;;;1.35;0.50;;;-7.90;99.90;;;;;;5092223;28;20228;-43
2021/12/26 03:28:30;;;;;;;3.83;0.80;;;-8.00;99.90;;;;;;5073968;28;20584;-44
2021/12/26 03:30:57;;;;;;;3.97;0.70;;;-8.10;99.90;;;;;;5071783;28;20044;-43
2021/12/26 03:33:23;;;;;;;2.20;0.88;;;-8.10;99.90;;;;;;5071939;28;20076;-45
2021/12/26 03:35:49;;;;;;;3.65;0.77;;;-8.20;99.90;;;;;;5084366;28;20098;-42
2021/12/26 03:38:16;;;;;;;3.60;0.63;;;-8.20;99.90;;;;;;5073781;28;20037;-43
2021/12/26 03:40:43;;;;;;;3.42;0.70;;;-8.20;99.90;;;;;;5090986;28;20051;-44
2021/12/26 03:43:10;;;;;;;4.55;1.08;;;-8.20;99.90;;;;;;5091990;28;20036;-43
2021/12/26 03:45:36;;;;;;;4.60;1.30;;;-8.30;99.90;;;;;;5088991;28;20150;-42
2021/12/26 03:48:03;;;;;;;6.40;0.82;;;-8.30;99.90;;;;;;5071722;28;20064;-43
2021/12/26 03:50:30;;;;;;;5.13;1.20;;;-7.90;99.90;;;;;;5090008;28;20547;-45
2021/12/26 03:52:57;;;;;;;4.35;0.52;;;-8.30;99.90;;;;;;5091417;28;20032;-43
2021/12/26 03:55:27;;;;;;;5.85;0.95;;;-8.20;99.90;;;;;;5074870;28;20047;-44
2021/12/26 03:57:53;;;;;;;7.35;1.25;;;-8.30;99.90;;;;;;5071487;28;20044;-44
2021/12/26 04:00:21;;;;;;;3.83;0.60;;;-8.20;99.90;;;;;;5079696;28;20032;-44
2021/12/26 04:02:48;;;;;;;6.93;1.63;;;-8.30;99.90;;;;;;5091523;28;20059;-43
2021/12/26 04:05:15;;;;;;;7.97;1.75;;;-8.30;99.90;;;;;;5083695;28;20371;-43
2021/12/26 04:07:41;;;;;;;6.32;1.13;;;-8.30;99.90;;;;;;5070945;28;20155;-43
2021/12/26 04:10:08;;;;;;;6.15;2.22;;;-8.40;99.90;;;;;;5086185;28;20040;-42
2021/12/26 04:12:37;;;;;;;1.90;0.93;;;-8.40;99.90;;;;;;5072887;28;20040;-42
2021/12/26 04:15:07;;;;;;;4.13;1.08;;;-8.50;99.90;;;;;;5070832;28;20051;-43
2021/12/26 04:17:33;;;;;;;6.45;0.98;;;-8.40;99.90;;;;;;5089669;28;20437;-43
2021/12/26 04:19:59;;;;;;;6.05;1.10;;;-8.50;99.90;;;;;;5076963;28;20052;-43
2021/12/26 04:22:25;;;;;;;6.70;2.10;;;-8.60;99.90;;;;;;5071027;28;20075;-44
2021/12/26 04:24:50;;;;;;;7.25;1.15;;;-8.60;99.90;;;;;;5083731;28;20500;-42
2021/12/26 04:27:16;;;;;;;7.30;1.23;;;-8.70;99.90;;;;;;5090037;28;20564;-43
2021/12/26 04:29:42;;;;;;;3.85;1.00;;;-8.70;99.90;;;;;;5091360;28;20043;-42
2021/12/26 04:32:07;;;;;;;4.60;1.02;;;-8.70;99.90;;;;;;5083927;28;20036;-42
2021/12/26 04:34:33;;;;;;;7.50;1.23;;;-8.80;99.90;;;;;;5072501;28;20043;-43
2021/12/26 04:36:59;;;;;;;6.90;1.02;;;-8.90;99.90;;;;;;5090783;28;20093;-43
2021/12/26 04:39:25;;;;;;;3.17;0.93;;;-8.90;99.90;;;;;;5077920;28;20051;-43
2021/12/26 04:41:51;;;;;;;4.95;1.13;;;-8.80;99.90;;;;;;5078276;28;20109;-43
2021/12/26 04:44:17;;;;;;;5.57;1.10;;;-8.80;99.90;;;;;;5078219;28;20113;-43
2021/12/26 04:46:42;;;;;;;3.15;1.15;;;-8.80;99.90;;;;;;5090713;28;20510;-43
2021/12/26 04:49:08;;;;;;;6.93;1.00;;;-8.80;99.90;;;;;;5084781;28;20492;-42
2021/12/26 04:51:34;;;;;;;6.30;1.30;;;-8.80;99.90;;;;;;5071786;28;20086;-43
2021/12/26 04:53:59;;;;;;;3.42;1.63;;;-8.80;99.90;;;;;;5080988;28;20119;-43
2021/12/26 04:56:25;;;;;;;6.45;1.38;;;-8.80;99.90;;;;;;5090024;28;20039;-43
2021/12/26 04:58:51;;;;;;;4.38;1.42;;;-8.80;99.90;;;;;;5090495;28;20055;-43
2021/12/26 05:01:17;;;;;;;4.30;1.50;;;-8.80;99.90;;;;;;5090659;28;20047;-42
2021/12/26 05:03:42;;;;;;;8.00;1.45;;;-8.80;99.90;;;;;;5079247;28;20067;-43
2021/12/26 05:06:08;;;;;;;3.40;1.25;;;-8.90;99.90;;;;;;5070233;28;20059;-43
2021/12/26 05:08:34;;;;;;;4.63;1.73;;;-8.80;99.90;;;;;;5075306;28;20044;-42
2021/12/26 05:10:59;;;;;;;6.28;1.85;;;-8.80;99.90;;;;;;5075592;28;20904;-43
2021/12/26 05:13:25;;;;;;;6.53;2.00;;;-8.80;99.90;;;;;;5090366;28;20047;-44
2021/12/26 05:15:51;;;;;;;2.90;1.27;;;-8.90;99.90;;;;;;5072221;28;20040;-42
2021/12/26 05:18:17;;;;;;;5.00;2.30;;;-8.80;99.90;;;;;;5083294;28;20528;-43
2021/12/26 05:20:44;;;;;;;5.82;2.40;;;-8.90;99.90;;;;;;5081368;28;20088;-44
2021/12/26 05:23:10;;;;;;;4.28;2.08;;;-8.90;99.90;;;;;;5070066;28;20048;-43
2021/12/26 05:25:36;;;;;;;7.07;2.25;;;-8.90;99.90;;;;;;5070291;28;20075;-44
2021/12/26 05:28:03;;;;;;;7.30;2.22;;;-9.00;99.90;;;;;;5072888;28;20079;-43
2021/12/26 05:30:29;;;;;;;7.63;1.92;;;-9.00;99.90;;;;;;5090149;28;20039;-43
2021/12/26 05:32:54;;;;;;;7.45;2.40;;;-9.00;99.90;;;;;;5072941;28;20044;-43
2021/12/26 05:35:20;;;;;;;6.68;2.28;;;-8.90;99.90;;;;;;5075725;28;20037;-43
2021/12/26 05:37:47;;;;;;;6.97;1.70;;;-8.90;99.90;;;;;;5079707;28;20118;-42
2021/12/26 05:40:14;;;;;;;6.20;2.65;;;-8.80;99.90;;;;;;5085196;28;20553;-42
2021/12/26 05:42:40;;;;;;;5.45;2.05;;;-8.80;99.90;;;;;;5069785;28;20072;-42
2021/12/26 05:45:08;;;;;;;6.53;2.17;;;-8.80;99.90;;;;;;5069700;28;20123;-43
2021/12/26 05:47:34;;;;;;;6.22;2.08;;;-8.70;99.90;;;;;;5085059;28;20359;-43
2021/12/26 05:50:00;;;;;;;4.97;2.25;;;-8.80;99.90;;;;;;5089494;28;20111;-43
2021/12/26 05:52:26;;;;;;;8.30;2.83;;;-8.80;99.90;;;;;;5089418;28;20139;-42
2021/12/26 05:54:52;;;;;;;6.45;2.60;;;-8.70;99.90;;;;;;5073026;28;20040;-44
2021/12/26 05:57:18;;;;;;;6.03;2.40;;;-8.70;99.90;;;;;;5089502;28;20481;-43
2021/12/26 05:59:44;;;;;;;4.97;2.78;;;-8.70;99.90;;;;;;5072534;28;20124;-43
2021/12/26 06:02:10;;;;;;;9.93;2.40;;;-8.60;99.90;;;;;;5069582;28;20496;-43
2021/12/26 06:04:36;;;;;;;9.73;2.00;;;-8.60;99.90;;;;;;5069034;28;20619;-42
2021/12/26 06:07:02;;;;;;;4.10;2.03;;;-8.60;99.90;;;;;;5080289;28;20103;-43
2021/12/26 06:09:28;;;;;;;6.57;2.42;;;-8.60;99.90;;;;;;5085914;28;20474;-44
2021/12/26 06:11:54;;;;;;;9.02;3.15;;;-8.60;99.90;;;;;;5086523;28;20036;-42
2021/12/26 06:14:19;;;;;;;7.47;2.55;;;-8.60;99.90;;;;;;5073292;28;20048;-43
2021/12/26 06:16:45;;;;;;;7.97;3.10;;;-8.60;99.90;;;;;;5079563;28;20102;-42
2021/12/26 06:19:11;;;;;;;5.07;2.22;;;-8.60;99.90;;;;;;5092242;28;20079;-43
2021/12/26 06:21:37;;;;;;;11.25;2.90;;;-8.60;99.90;;;;;;5072778;28;20099;-43
2021/12/26 06:24:03;;;;;;;7.75;3.40;;;-8.60;99.90;;;;;;5078960;28;20095;-43
2021/12/26 06:26:29;;;;;;;5.40;2.95;;;-8.50;99.90;;;;;;5073248;28;20051;-43
2021/12/26 06:28:55;;;;;;;12.10;2.70;;;-8.60;99.90;;;;;;5073116;28;20080;-44
2021/12/26 06:31:21;;;;;;;6.22;2.45;;;-8.50;99.90;;;;;;5084163;28;20724;-42
2021/12/26 06:33:47;;;;;;;6.38;2.80;;;-8.50;99.90;;;;;;5093317;28;20527;-44
2021/12/26 06:36:15;;;;;;;7.03;2.75;;;-8.40;99.90;;;;;;5093690;28;20118;-43
2021/12/26 06:38:42;;;;;;;8.40;3.72;;;-8.40;99.90;;;;;;5090914;28;20060;-42
2021/12/26 06:41:08;;;;;;;7.13;2.85;;;-8.30;99.90;;;;;;5084057;28;20083;-43
2021/12/26 06:43:35;;;;;;;6.55;3.00;;;-8.30;99.90;;;;;;5077474;28;20125;-43
2021/12/26 06:46:01;;;;;;;6.43;3.05;;;-8.30;99.90;;;;;;5084856;28;20067;-43
2021/12/26 06:48:27;;;;;;;8.60;3.15;;;-8.30;99.90;;;;;;5084427;28;20127;-42
2021/12/26 06:50:54;;;;;;;8.18;3.03;;;-8.30;99.90;;;;;;5082057;28;20169;-43
2021/12/26 06:53:20;;;;;;;6.10;2.60;;;-8.30;99.90;;;;;;5088178;28;20086;-43
2021/12/26 06:55:48;;;;;;;6.72;3.03;;;-8.30;99.90;;;;;;5089124;28;20047;-43
2021/12/26 06:58:15;;;;;;;7.10;2.83;;;-8.30;99.90;;;;;;5072763;28;20048;-43
2021/12/26 07:00:41;;;;;;;7.15;3.30;;;-8.30;99.90;;;;;;5072233;28;20060;-43
2021/12/26 07:03:07;;;;;;;9.55;2.97;;;-8.30;99.90;;;;;;5072676;28;20115;-42
2021/12/26 07:05:33;;;;;;;8.45;3.15;;;-8.30;99.90;;;;;;5090841;28;20849;-43
2021/12/26 07:07:59;;;;;;;8.38;3.83;;;-8.20;99.90;;;;;;5092774;28;20079;-43
2021/12/26 07:10:25;;;;;;;8.38;3.28;;;-8.20;99.90;;;;;;5084477;28;20389;-43
2021/12/26 07:12:50;;;;;;;8.93;3.08;;;-8.20;99.90;;;;;;5072283;28;20149;-43
2021/12/26 07:15:16;;;;;;;6.32;2.78;;;-8.30;99.90;;;;;;5088303;28;20051;-43
2021/12/26 07:17:42;;;;;;;9.07;3.58;;;-8.30;99.90;;;;;;5092525;28;20047;-43
2021/12/26 07:20:10;;;;;;;7.43;4.35;;;-8.30;99.90;;;;;;5085811;28;20414;-43
2021/12/26 07:22:37;;;;;;;8.68;3.38;;;-8.20;99.90;;;;;;5071813;28;20075;-43
2021/12/26 07:25:05;;;;;;;6.50;3.50;;;-8.30;99.90;;;;;;5087962;28;20093;-44
2021/12/26 07:27:31;;;;;;;7.00;3.22;;;-8.30;99.90;;;;;;5101391;28;20039;-43
2021/12/26 07:29:58;;;;;;;9.13;4.30;;;-8.30;99.90;;;;;;5091234;28;20501;-43
2021/12/26 07:32:25;;;;;;;7.85;3.90;;;-8.30;99.90;;;;;;5091438;28;20035;-43
2021/12/26 07:34:51;;;;;;;5.43;2.60;;;-8.40;99.90;;;;;;5100051;28;20075;-43
2021/12/26 07:37:17;;;;;;;7.65;2.92;;;-8.40;99.90;;;;;;5096527;28;20114;-43
2021/12/26 07:39:43;;;;;;;9.40;4.07;;;-8.40;99.90;;;;;;5100166;28;20032;-43
2021/12/26 07:42:10;;;;;;;4.72;2.30;;;-8.40;99.90;;;;;;5100030;28;20030;-43
2021/12/26 07:44:36;;;;;;;8.02;3.20;;;-8.30;99.90;;;;;;5099309;28;20074;-42
2021/12/26 07:47:03;;;;;;;7.22;3.17;;;-8.30;99.90;;;;;;5101074;28;20036;-43
2021/12/26 07:49:28;;;;;;;8.50;3.58;;;-8.20;99.90;;;;;;5099790;28;20082;-44
2021/12/26 07:51:55;;;;;;;7.25;3.13;;;-8.20;99.90;;;;;;5092900;28;20075;-43
2021/12/26 07:54:23;;;;;;;7.95;3.50;;;-8.10;99.90;;;;;;5091136;28;20070;-42
2021/12/26 07:56:49;;;;;;;5.15;3.03;;;-8.10;99.90;;;;;;5087864;28;20036;-43
2021/12/26 07:59:15;;;;;;;9.30;4.55;;;-8.00;99.90;;;;;;5091305;28;20131;-43
2021/12/26 08:01:41;;;;;;;8.40;3.90;;;-8.10;99.90;;;;;;5091413;28;20544;-44
2021/12/26 08:04:10;;;;;;;5.38;2.90;;;-8.00;99.90;;;;;;5090302;28;20035;-42
2021/12/26 08:06:37;;;;;;;8.13;3.25;;;-8.00;99.90;;;;;;5070594;28;20051;-42
2021/12/26 08:09:03;;;;;;;6.18;2.90;;;-7.90;99.90;;;;;;5090297;28;20082;-42
2021/12/26 08:11:29;;;;;;;8.02;3.67;;;-7.90;99.90;;;;;;5090823;28;20113;-43
2021/12/26 08:13:55;;;;;;;5.93;2.90;;;-7.80;99.90;;;;;;5089973;28;20725;-43
2021/12/26 08:16:20;;;;;;;6.30;3.33;;;-7.80;99.90;;;;;;5071935;28;20362;-43
2021/12/26 08:18:47;;;;;;;7.90;3.22;;;-7.70;99.90;;;;;;5090216;28;20050;-42
2021/12/26 08:21:16;;;;;;;9.07;3.40;;;-7.70;99.90;;;;;;5088743;28;20047;-43
2021/12/26 08:23:42;;;;;;;6.45;3.40;;;-7.70;99.90;;;;;;5074507;28;20497;-42
2021/12/26 08:26:08;;;;;;;7.57;3.50;;;-7.70;99.90;;;;;;5080239;28;20475;-43
2021/12/26 08:28:33;;;;;;;7.82;3.55;;;-7.70;99.90;;;;;;5075234;28;20047;-45
2021/12/26 08:30:59;;;;;;;5.60;3.30;;;-7.60;99.90;;;;;;5074485;28;20493;-44
2021/12/26 08:33:25;;;;;;;6.28;2.47;;;-7.60;99.90;;;;;;5078882;28;20533;-45
2021/12/26 08:35:51;;;;;;;6.60;3.53;;;-7.60;99.90;;;;;;5074020;28;20090;-43
2021/12/26 08:38:20;;;;;;;7.00;3.60;;;-7.50;99.90;;;;;;5072898;28;20137;-42
2021/12/26 08:40:51;;;;;;;5.72;3.30;;;-7.50;99.90;;;;;;5078358;28;20608;-42
2021/12/26 08:43:17;;;;;;;8.10;3.63;;;-7.40;99.90;;;;;;5071247;28;20518;-44
2021/12/26 08:45:43;;;;;;;6.40;3.22;;;-7.30;99.90;;;;;;5078099;28;20044;-43
2021/12/26 08:48:09;;;;;;;9.07;3.00;;;-7.20;99.90;;;;;;5076986;28;20059;-43
2021/12/26 08:50:34;;;;;;;5.00;3.05;;;-7.10;99.90;;;;;;5075379;28;20032;-42
2021/12/26 08:53:01;;;;;;;7.63;3.45;;;-7.00;99.90;;;;;;5075735;28;20049;-43
2021/12/26 08:55:26;;;;;;;7.72;3.08;;;-6.90;99.90;;;;;;5075869;28;20466;-44
2021/12/26 08:57:53;;;;;;;6.03;2.92;;;-6.80;99.90;;;;;;5078000;28;20547;-43
2021/12/26 09:00:20;;;;;;;7.45;3.60;;;-6.80;99.90;;;;;;5075775;28;20111;-43
2021/12/26 09:02:46;;;;;;;7.95;3.58;;;-6.70;99.90;;;;;;5052336;28;20048;-43
2021/12/26 09:05:12;;;;;;;7.18;3.17;;;-6.60;99.90;;;;;;5069676;28;20082;-43
2021/12/26 09:07:39;;;;;;;5.90;3.10;;;-6.50;99.90;;;;;;5051688;28;20517;-43
2021/12/26 09:10:06;;;;;;;6.40;3.15;;;-6.40;99.90;;;;;;5063825;28;20036;-43
2021/12/26 09:12:32;;;;;;;8.82;3.80;;;-6.30;99.90;;;;;;5055952;28;20079;-44
2021/12/26 09:14:57;;;;;;;7.20;3.45;;;-5.40;99.90;;;;;;5069902;28;20070;-43
2021/12/26 09:17:23;;;;;;;6.63;3.58;;;-6.20;99.90;;;;;;5069931;28;20040;-42
2021/12/26 09:19:49;;;;;;;7.05;2.88;;;-6.10;99.90;;;;;;5057867;28;20124;-43
2021/12/26 09:22:17;;;;;;;7.20;5.15;;;-5.90;99.90;;;;;;5057809;28;20103;-43
2021/12/26 09:24:45;;;;;;;8.38;3.10;;;-5.90;99.90;;;;;;5076010;28;20040;-42
2021/12/26 09:27:11;;;;;;;9.65;3.60;;;-5.80;99.90;;;;;;5076169;28;20040;-46
2021/12/26 09:29:37;;;;;;;5.35;3.10;;;-5.60;99.90;;;;;;5087616;28;20545;-44
2021/12/26 09:32:04;;;;;;;4.75;2.78;;;-5.30;99.90;;;;;;5069573;28;20119;-44
2021/12/26 09:34:32;;;;;;;6.00;3.45;;;-5.00;99.90;;;;;;5069905;28;20087;-43
2021/12/26 09:36:59;;;;;;;5.22;2.60;;;-4.90;99.90;;;;;;5077072;28;20079;-43
2021/12/26 09:39:25;;;;;;;5.80;2.72;;;-5.00;99.90;;;;;;5086030;28;20075;-42
2021/12/26 09:41:51;;;;;;;7.80;2.95;;;-5.00;99.90;;;;;;5089404;28;20059;-43
2021/12/26 09:44:17;;;;;;;5.25;2.55;;;-5.10;99.90;;;;;;5037565;28;20086;-43
2021/12/26 09:46:44;;;;;;;4.60;2.45;;;-5.20;99.90;;;;;;5063018;28;20499;-42
2021/12/26 09:49:10;;;;;;;7.97;3.17;;;-5.20;99.90;;;;;;5088346;28;20087;-44
2021/12/26 09:51:36;;;;;;;6.32;3.50;;;-5.10;99.90;;;;;;5089103;28;20051;-44
2021/12/26 09:54:04;;;;;;;6.38;3.03;;;-5.10;99.90;;;;;;5089298;28;20464;-43
2021/12/26 09:56:30;;;;;;;4.80;2.80;;;-5.10;99.90;;;;;;5086891;28;20040;-44
2021/12/26 09:59:03;;;;;;;6.65;3.55;;;-5.10;99.90;;;;;;5089146;28;20043;-43
2021/12/26 10:01:34;;;;;;;5.78;3.22;;;-5.00;99.90;;;;;;5086473;28;20040;-43
2021/12/26 10:04:24;;;;;;;7.15;3.28;;;-4.90;99.90;;;;;;5088857;28;20031;-42
2021/12/26 10:07:06;;;;;;;6.32;3.13;;;-4.80;99.90;;;;;;5075388;28;20044;-43
2021/12/26 10:09:35;;;;;;;4.88;2.63;;;-4.70;99.90;;;;;;5086605;28;20079;-43
2021/12/26 10:12:01;;;;;;;5.75;3.10;;;-4.60;99.90;;;;;;5083409;28;20044;-43
2021/12/26 10:14:29;;;;;;;5.78;3.03;;;-4.50;99.90;;;;;;5089740;28;20036;-43
2021/12/26 10:17:04;;;;;;;5.63;2.97;;;-4.50;99.90;;;;;;5076478;28;20363;-42
2021/12/26 10:19:38;;;;;;;7.35;3.17;;;-4.40;99.90;;;;;;5069066;28;20059;-44
2021/12/26 10:22:05;;;;;;;7.15;2.88;;;-4.30;99.90;;;;;;5069150;28;20133;-42
2021/12/26 10:24:36;;;;;;;5.65;3.50;;;-4.20;99.90;;;;;;4320419;28;10001021;-42
2021/12/26 10:27:05;;;;;;;5.93;3.38;;;-4.10;99.90;;;;;;5064672;28;20084;-42
2021/12/26 10:29:36;;;;;;;7.78;3.05;;;-4.10;99.90;;;;;;5062377;28;20056;-42
2021/12/26 10:32:05;;;;;;;4.22;2.78;;;-4.00;99.90;;;;;;5048013;28;20044;-42
2021/12/26 10:34:42;;;;;;;6.30;3.40;;;-3.90;99.90;;;;;;5063677;28;20514;-42
2021/12/26 10:37:12;;;;;;;5.72;2.85;;;-3.80;99.90;;;;;;5050873;28;20083;-41
2021/12/26 10:39:43;;;;;;;6.65;3.42;;;-3.70;99.90;;;;;;5058365;28;20423;-42
2021/12/26 10:42:16;;;;;;;7.30;2.97;;;-3.50;99.90;;;;;;5049848;28;20214;-42
2021/12/26 10:44:45;;;;;;;8.23;3.50;;;-3.50;99.90;;;;;;5047559;28;20497;-42
2021/12/26 10:47:18;;;;;;;7.93;3.08;;;-3.40;99.90;;;;;;5047184;28;20434;-42
2021/12/26 10:50:00;;;;;;;5.95;2.90;;;-3.40;99.90;;;;;;5064678;28;20048;-42
2021/12/26 10:52:28;;;;;;;3.70;1.95;;;-3.40;99.90;;;;;;5056150;28;20774;-42
2021/12/26 10:55:02;;;;;;;4.65;2.42;;;-3.40;99.90;;;;;;5064854;28;20040;-42
2021/12/26 10:57:37;;;;;;;5.95;2.22;;;-3.30;99.90;;;;;;5079441;28;20731;-41
2021/12/26 11:00:15;;;;;;;6.40;2.90;;;-3.40;99.90;;;;;;5076854;28;20044;-42
2021/12/26 11:03:04;;;;;;;4.88;2.92;;;-3.30;99.90;;;;;;5088757;28;20086;-42
2021/12/26 11:05:42;;;;;;;6.68;2.70;;;-3.20;99.90;;;;;;5070560;28;20122;-42
2021/12/26 11:08:13;;;;;;;6.32;2.63;;;-3.10;99.90;;;;;;5076985;28;20495;-43
2021/12/26 11:10:48;;;;;;;5.40;2.58;;;-3.10;99.90;;;;;;5082757;28;20048;-41
2021/12/26 11:13:26;;;;;;;6.43;2.85;;;-3.10;99.90;;;;;;5072682;28;20408;-41
2021/12/26 11:15:58;;;;;;;4.88;2.78;;;-3.00;99.90;;;;;;5091365;28;20123;-43
2021/12/26 11:18:24;;;;;;;6.38;2.92;;;-3.00;99.90;;;;;;5083776;28;20080;-44
2021/12/26 11:20:53;;;;;;;7.10;2.83;;;-3.00;99.90;;;;;;5091746;28;20079;-43
2021/12/26 11:23:22;;;;;;;5.68;2.83;;;-2.90;99.90;;;;;;5086538;28;20098;-49
2021/12/26 11:26:08;;;;;;;8.38;3.08;;;-2.90;99.90;;;;;;5065167;28;21400;-55
2021/12/26 11:28:37;;;;;;;7.30;3.05;;;-2.90;99.90;;;;;;5076870;28;20043;-55
2021/12/26 11:31:05;;;;;;;7.18;3.47;;;-2.90;99.90;;;;;;5083640;28;20051;-46
2021/12/26 11:33:32;;;;;;;6.47;2.67;;;-2.80;99.90;;;;;;5087222;28;20031;-51
2021/12/26 11:35:59;;;;;;;5.30;2.80;;;-2.90;99.90;;;;;;5093413;28;20035;-50
2021/12/26 11:38:27;;;;;;;5.35;2.80;;;-2.90;99.90;;;;;;5093142;28;20169;-47
2021/12/26 11:40:57;;;;;;;5.50;2.60;;;-2.80;99.90;;;;;;5097527;28;20507;-48
2021/12/26 11:43:53;;;;;;;6.40;3.15;;;-2.80;99.90;;;;;;5097318;28;20036;-45
2021/12/26 11:46:30;;;;;;;5.75;2.50;;;-2.70;99.90;;;;;;5094321;28;20031;-59
2021/12/26 11:49:49;;;;;;;4.13;2.22;;;-2.70;99.90;;;;;;5098607;28;20055;-53
2021/12/26 11:52:32;;;;;;;6.38;3.05;;;-2.60;99.90;;;;;;5058155;28;20097;-43
2021/12/26 11:55:14;;;;;;;5.22;2.58;;;-2.60;99.90;;;;;;5095536;28;20496;-40
2021/12/26 11:58:00;;;;;;;5.43;2.35;;;-2.50;99.90;;;;;;5094899;28;20092;-40
2021/12/26 12:00:35;;;;;;;5.72;2.60;;;-2.50;99.90;;;;;;5095163;28;20044;-42
2021/12/26 12:03:04;;;;;;;5.70;2.97;;;-2.40;99.90;;;;;;5092797;28;20059;-40
2021/12/26 12:05:40;;;;;;;5.50;3.15;;;-2.40;99.90;;;;;;5092911;28;20053;-40
2021/12/26 12:08:11;;;;;;;5.82;2.95;;;-2.40;99.90;;;;;;5077672;28;20047;-46
2021/12/26 12:10:56;;;;;;;5.88;3.28;;;-2.50;99.90;;;;;;5092265;28;20813;-45
2021/12/26 12:13:22;;;;;;;6.70;3.10;;;-2.40;99.90;;;;;;5084355;28;20036;-48
2021/12/26 12:15:56;;;;;;;6.70;2.80;;;-2.30;99.90;;;;;;5085869;28;20367;-44
2021/12/26 12:18:33;;;;;;;7.10;3.00;;;-2.30;99.90;;;;;;5093892;28;20050;-54
2021/12/26 12:21:07;;;;;;;5.72;2.35;;;-2.20;99.90;;;;;;5091346;28;20457;-45
2021/12/26 12:23:34;;;;;;;7.90;3.60;;;-2.20;99.90;;;;;;5093022;28;20060;-53
2021/12/26 12:26:00;;;;;;;6.35;3.55;;;-2.20;99.90;;;;;;5081093;28;20044;-51
2021/12/26 12:28:32;;;;;;;9.82;4.20;;;-2.20;99.90;;;;;;5082343;28;20055;-43
2021/12/26 12:31:17;;;;;;;7.28;2.72;;;-2.10;99.90;;;;;;5094770;28;20493;-46
2021/12/26 12:33:47;;;;;;;8.15;3.90;;;-2.10;99.90;;;;;;5080978;28;20138;-42
2021/12/26 12:36:29;;;;;;;11.07;3.65;;;-2.20;99.90;;;;;;5091415;28;20063;-42
2021/12/26 12:39:16;;;;;;;8.65;3.50;;;-2.00;99.90;;;;;;5097385;28;20140;-40
2021/12/26 12:41:49;;;;;;;6.57;3.00;;;-1.90;99.90;;;;;;5092677;28;20036;-38
2021/12/26 12:44:32;;;;;;;;;;;-1.80;99.90;;;;;;5095844;28;20043;-38
2021/12/26 12:47:05;;;;;;;6.65;3.47;;;-1.70;99.90;;;;;;5094073;28;19916;-44
2021/12/26 12:49:47;;;;;;;6.57;3.08;;;-1.70;99.90;;;;;;5073996;28;20073;-41
2021/12/26 12:52:38;;;;;;;5.20;2.85;;;-1.70;99.90;;;;;;5094396;28;20039;-47
2021/12/26 12:55:12;;;;;;;5.63;3.13;;;-1.60;99.90;;;;;;5093668;28;20047;-46
2021/12/26 12:57:44;;;;;;;7.22;3.53;;;-1.60;99.90;;;;;;5091337;28;20114;-45
2021/12/26 13:00:30;;;;;;;6.82;2.90;;;-1.60;99.90;;;;;;5088760;28;20035;-49